sensor_id;sensor_type;location;lat;lon;timestamp;P1;durP1;ratioP1;P2;durP2;ratioP2
33108;SDS011;19481;51.118;6.940;2023-07-29T00:00:52;0.93;;;0.93;;
33108;SDS011;19481;51.118;6.940;2023-07-29T00:05:55;1.40;;;1.17;;
33108;SDS011;19481;51.118;6.940;2023-07-29T00:10:58;4.22;;;1.30;;
33108;SDS011;19481;51.118;6.940;2023-07-29T00:15:59;6.13;;;1.08;;
33108;SDS011;19481;51.118;6.940;2023-07-29T00:21:01;1.10;;;1.00;;
33108;SDS011;19481;51.118;6.940;2023-07-29T00:26:04;1.02;;;1.02;;
33108;SDS011;19481;51.118;6.940;2023-07-29T00:31:06;1.75;;;1.13;;
33108;SDS011;19481;51.118;6.940;2023-07-29T00:36:07;2.38;;;1.15;;
33108;SDS011;19481;51.118;6.940;2023-07-29T00:41:10;1.20;;;1.10;;
33108;SDS011;19481;51.118;6.940;2023-07-29T00:46:13;1.23;;;1.13;;
33108;SDS011;19481;51.118;6.940;2023-07-29T00:51:15;1.30;;;1.20;;
33108;SDS011;19481;51.118;6.940;2023-07-29T00:56:18;1.20;;;1.10;;
33108;SDS011;19481;51.118;6.940;2023-07-29T01:01:20;1.70;;;1.20;;
33108;SDS011;19481;51.118;6.940;2023-07-29T01:06:23;1.40;;;1.30;;
33108;SDS011;19481;51.118;6.940;2023-07-29T01:11:35;4.93;;;1.20;;
33108;SDS011;19481;51.118;6.940;2023-07-29T01:16:45;1.30;;;1.20;;
33108;SDS011;19481;51.118;6.940;2023-07-29T01:21:51;3.53;;;1.40;;
33108;SDS011;19481;51.118;6.940;2023-07-29T01:26:54;1.40;;;1.30;;
33108;SDS011;19481;51.118;6.940;2023-07-29T01:31:56;1.58;;;1.48;;
33108;SDS011;19481;51.118;6.940;2023-07-29T01:37:02;1.70;;;1.30;;
33108;SDS011;19481;51.118;6.940;2023-07-29T01:42:11;3.55;;;1.40;;
33108;SDS011;19481;51.118;6.940;2023-07-29T01:47:13;1.33;;;1.23;;
33108;SDS011;19481;51.118;6.940;2023-07-29T01:52:14;3.95;;;1.60;;
33108;SDS011;19481;51.118;6.940;2023-07-29T01:57:17;1.58;;;1.48;;
33108;SDS011;19481;51.118;6.940;2023-07-29T02:02:19;1.50;;;1.40;;
33108;SDS011;19481;51.118;6.940;2023-07-29T02:07:21;2.00;;;1.60;;
33108;SDS011;19481;51.118;6.940;2023-07-29T02:12:24;2.50;;;1.30;;
33108;SDS011;19481;51.118;6.940;2023-07-29T02:17:25;2.70;;;1.30;;
33108;SDS011;19481;51.118;6.940;2023-07-29T02:22:27;5.82;;;1.50;;
33108;SDS011;19481;51.118;6.940;2023-07-29T02:27:30;2.40;;;1.70;;
33108;SDS011;19481;51.118;6.940;2023-07-29T02:32:31;2.17;;;1.50;;
33108;SDS011;19481;51.118;6.940;2023-07-29T02:37:33;2.22;;;1.67;;
33108;SDS011;19481;51.118;6.940;2023-07-29T02:42:36;2.35;;;1.55;;
33108;SDS011;19481;51.118;6.940;2023-07-29T02:47:38;1.85;;;1.40;;
33108;SDS011;19481;51.118;6.940;2023-07-29T02:52:40;1.65;;;1.55;;
33108;SDS011;19481;51.118;6.940;2023-07-29T02:57:43;2.20;;;2.00;;
33108;SDS011;19481;51.118;6.940;2023-07-29T03:02:44;1.90;;;1.73;;
33108;SDS011;19481;51.118;6.940;2023-07-29T03:07:46;2.33;;;2.13;;
33108;SDS011;19481;51.118;6.940;2023-07-29T03:12:49;1.73;;;1.63;;
33108;SDS011;19481;51.118;6.940;2023-07-29T03:17:50;2.10;;;1.95;;
33108;SDS011;19481;51.118;6.940;2023-07-29T03:22:52;4.35;;;1.80;;
33108;SDS011;19481;51.118;6.940;2023-07-29T03:27:55;2.10;;;1.90;;
33108;SDS011;19481;51.118;6.940;2023-07-29T03:32:57;1.50;;;1.38;;
33108;SDS011;19481;51.118;6.940;2023-07-29T03:37:58;1.65;;;1.55;;
33108;SDS011;19481;51.118;6.940;2023-07-29T03:43:01;3.88;;;1.40;;
33108;SDS011;19481;51.118;6.940;2023-07-29T03:48:03;1.98;;;1.70;;
33108;SDS011;19481;51.118;6.940;2023-07-29T03:53:05;1.70;;;1.60;;
33108;SDS011;19481;51.118;6.940;2023-07-29T03:58:08;1.92;;;1.60;;
33108;SDS011;19481;51.118;6.940;2023-07-29T04:03:09;1.67;;;1.58;;
33108;SDS011;19481;51.118;6.940;2023-07-29T04:08:11;4.60;;;1.80;;
33108;SDS011;19481;51.118;6.940;2023-07-29T04:13:14;3.60;;;1.80;;
33108;SDS011;19481;51.118;6.940;2023-07-29T04:18:15;1.95;;;1.77;;
33108;SDS011;19481;51.118;6.940;2023-07-29T04:23:17;1.58;;;1.40;;
33108;SDS011;19481;51.118;6.940;2023-07-29T04:28:20;1.48;;;1.30;;
33108;SDS011;19481;51.118;6.940;2023-07-29T04:33:22;2.83;;;1.40;;
33108;SDS011;19481;51.118;6.940;2023-07-29T04:38:24;2.20;;;1.33;;
33108;SDS011;19481;51.118;6.940;2023-07-29T04:43:34;1.90;;;1.70;;
33108;SDS011;19481;51.118;6.940;2023-07-29T04:48:35;1.35;;;1.25;;
33108;SDS011;19481;51.118;6.940;2023-07-29T04:53:37;3.50;;;1.30;;
33108;SDS011;19481;51.118;6.940;2023-07-29T04:58:40;2.70;;;1.50;;
33108;SDS011;19481;51.118;6.940;2023-07-29T05:03:41;1.52;;;1.30;;
33108;SDS011;19481;51.118;6.940;2023-07-29T05:08:43;2.17;;;1.33;;
33108;SDS011;19481;51.118;6.940;2023-07-29T05:13:46;1.55;;;1.40;;
33108;SDS011;19481;51.118;6.940;2023-07-29T05:18:47;1.70;;;1.60;;
33108;SDS011;19481;51.118;6.940;2023-07-29T05:23:49;1.70;;;1.60;;
33108;SDS011;19481;51.118;6.940;2023-07-29T05:28:52;2.03;;;1.58;;
33108;SDS011;19481;51.118;6.940;2023-07-29T05:33:53;1.67;;;1.38;;
33108;SDS011;19481;51.118;6.940;2023-07-29T05:38:55;4.60;;;1.70;;
33108;SDS011;19481;51.118;6.940;2023-07-29T05:43:58;6.25;;;1.35;;
33108;SDS011;19481;51.118;6.940;2023-07-29T05:49:00;1.95;;;1.33;;
33108;SDS011;19481;51.118;6.940;2023-07-29T05:54:01;2.60;;;1.50;;
33108;SDS011;19481;51.118;6.940;2023-07-29T05:59:04;3.10;;;1.35;;
33108;SDS011;19481;51.118;6.940;2023-07-29T06:04:06;1.75;;;1.50;;
33108;SDS011;19481;51.118;6.940;2023-07-29T06:09:08;3.65;;;1.50;;
33108;SDS011;19481;51.118;6.940;2023-07-29T06:14:10;3.90;;;1.40;;
33108;SDS011;19481;51.118;6.940;2023-07-29T06:19:12;3.75;;;1.30;;
33108;SDS011;19481;51.118;6.940;2023-07-29T06:24:14;6.57;;;1.20;;
33108;SDS011;19481;51.118;6.940;2023-07-29T06:29:17;1.35;;;1.00;;
33108;SDS011;19481;51.118;6.940;2023-07-29T06:34:19;3.40;;;1.13;;
33108;SDS011;19481;51.118;6.940;2023-07-29T06:39:20;3.03;;;0.85;;
33108;SDS011;19481;51.118;6.940;2023-07-29T06:44:23;2.20;;;0.90;;
33108;SDS011;19481;51.118;6.940;2023-07-29T06:49:25;1.83;;;1.00;;
33108;SDS011;19481;51.118;6.940;2023-07-29T06:54:26;1.50;;;0.88;;
33108;SDS011;19481;51.118;6.940;2023-07-29T06:59:29;1.80;;;1.00;;
33108;SDS011;19481;51.118;6.940;2023-07-29T07:04:31;1.50;;;0.90;;
33108;SDS011;19481;51.118;6.940;2023-07-29T07:09:32;1.42;;;1.15;;
33108;SDS011;19481;51.118;6.940;2023-07-29T07:14:36;1.65;;;1.00;;
33108;SDS011;19481;51.118;6.940;2023-07-29T07:19:37;0.85;;;0.85;;
33108;SDS011;19481;51.118;6.940;2023-07-29T07:24:39;1.13;;;1.02;;
33108;SDS011;19481;51.118;6.940;2023-07-29T07:29:42;1.15;;;1.05;;
33108;SDS011;19481;51.118;6.940;2023-07-29T07:34:44;1.20;;;1.10;;
33108;SDS011;19481;51.118;6.940;2023-07-29T07:39:45;2.47;;;1.10;;
33108;SDS011;19481;51.118;6.940;2023-07-29T07:44:48;1.30;;;1.02;;
33108;SDS011;19481;51.118;6.940;2023-07-29T07:49:50;2.75;;;1.10;;
33108;SDS011;19481;51.118;6.940;2023-07-29T07:54:52;1.17;;;0.98;;
33108;SDS011;19481;51.118;6.940;2023-07-29T07:59:55;0.88;;;0.88;;
33108;SDS011;19481;51.118;6.940;2023-07-29T08:04:57;2.72;;;0.98;;
33108;SDS011;19481;51.118;6.940;2023-07-29T08:09:58;1.35;;;0.90;;
33108;SDS011;19481;51.118;6.940;2023-07-29T08:15:01;4.60;;;1.10;;
33108;SDS011;19481;51.118;6.940;2023-07-29T08:20:04;0.73;;;0.70;;
33108;SDS011;19481;51.118;6.940;2023-07-29T08:25:06;0.93;;;0.82;;
33108;SDS011;19481;51.118;6.940;2023-07-29T08:30:10;0.70;;;0.70;;
33108;SDS011;19481;51.118;6.940;2023-07-29T08:35:12;0.80;;;0.70;;
33108;SDS011;19481;51.118;6.940;2023-07-29T08:40:13;0.77;;;0.70;;
33108;SDS011;19481;51.118;6.940;2023-07-29T08:45:17;1.92;;;0.60;;
33108;SDS011;19481;51.118;6.940;2023-07-29T08:50:19;1.23;;;0.60;;
33108;SDS011;19481;51.118;6.940;2023-07-29T08:55:21;0.60;;;0.55;;
33108;SDS011;19481;51.118;6.940;2023-07-29T09:00:24;0.60;;;0.57;;
33108;SDS011;19481;51.118;6.940;2023-07-29T09:05:26;1.00;;;0.68;;
33108;SDS011;19481;51.118;6.940;2023-07-29T09:10:28;0.65;;;0.60;;
33108;SDS011;19481;51.118;6.940;2023-07-29T09:15:32;0.70;;;0.65;;
33108;SDS011;19481;51.118;6.940;2023-07-29T09:20:35;0.93;;;0.75;;
33108;SDS011;19481;51.118;6.940;2023-07-29T09:25:37;0.95;;;0.70;;
33108;SDS011;19481;51.118;6.940;2023-07-29T09:30:40;0.75;;;0.50;;
33108;SDS011;19481;51.118;6.940;2023-07-29T09:35:43;0.98;;;0.63;;
33108;SDS011;19481;51.118;6.940;2023-07-29T09:40:45;0.60;;;0.60;;
33108;SDS011;19481;51.118;6.940;2023-07-29T09:45:48;0.73;;;0.65;;
33108;SDS011;19481;51.118;6.940;2023-07-29T09:50:53;1.75;;;0.68;;
33108;SDS011;19481;51.118;6.940;2023-07-29T09:55:55;1.88;;;0.70;;
33108;SDS011;19481;51.118;6.940;2023-07-29T10:00:58;1.05;;;0.60;;
33108;SDS011;19481;51.118;6.940;2023-07-29T10:06:00;0.77;;;0.60;;
33108;SDS011;19481;51.118;6.940;2023-07-29T10:11:03;0.80;;;0.60;;
33108;SDS011;19481;51.118;6.940;2023-07-29T10:16:07;0.60;;;0.60;;
33108;SDS011;19481;51.118;6.940;2023-07-29T10:21:10;1.40;;;1.00;;
33108;SDS011;19481;51.118;6.940;2023-07-29T10:26:14;2.08;;;0.60;;
33108;SDS011;19481;51.118;6.940;2023-07-29T10:31:21;2.60;;;0.93;;
33108;SDS011;19481;51.118;6.940;2023-07-29T10:36:24;3.13;;;0.90;;
33108;SDS011;19481;51.118;6.940;2023-07-29T10:47:00;3.72;;;0.80;;
33108;SDS011;19481;51.118;6.940;2023-07-29T10:52:13;0.80;;;0.80;;
33108;SDS011;19481;51.118;6.940;2023-07-29T10:57:16;1.15;;;0.63;;
33108;SDS011;19481;51.118;6.940;2023-07-29T11:02:34;0.70;;;0.70;;
33108;SDS011;19481;51.118;6.940;2023-07-29T11:07:43;0.80;;;0.60;;
33108;SDS011;19481;51.118;6.940;2023-07-29T11:12:46;0.85;;;0.73;;
33108;SDS011;19481;51.118;6.940;2023-07-29T11:17:52;1.30;;;0.70;;
33108;SDS011;19481;51.118;6.940;2023-07-29T11:22:55;0.88;;;0.80;;
33108;SDS011;19481;51.118;6.940;2023-07-29T11:27:58;1.45;;;0.88;;
33108;SDS011;19481;51.118;6.940;2023-07-29T11:33:01;1.08;;;0.82;;
33108;SDS011;19481;51.118;6.940;2023-07-29T11:38:04;1.65;;;0.70;;
33108;SDS011;19481;51.118;6.940;2023-07-29T11:43:05;1.27;;;0.77;;
33108;SDS011;19481;51.118;6.940;2023-07-29T11:48:08;1.15;;;0.95;;
33108;SDS011;19481;51.118;6.940;2023-07-29T11:53:10;1.90;;;0.85;;
33108;SDS011;19481;51.118;6.940;2023-07-29T11:58:13;1.05;;;0.80;;
33108;SDS011;19481;51.118;6.940;2023-07-29T12:03:18;0.98;;;0.88;;
33108;SDS011;19481;51.118;6.940;2023-07-29T12:08:20;1.00;;;0.90;;
33108;SDS011;19481;51.118;6.940;2023-07-29T12:13:23;0.80;;;0.80;;
33108;SDS011;19481;51.118;6.940;2023-07-29T12:18:30;0.80;;;0.65;;
33108;SDS011;19481;51.118;6.940;2023-07-29T12:23:33;2.70;;;0.90;;
33108;SDS011;19481;51.118;6.940;2023-07-29T12:28:34;1.17;;;0.98;;
33108;SDS011;19481;51.118;6.940;2023-07-29T12:33:37;1.70;;;0.90;;
33108;SDS011;19481;51.118;6.940;2023-07-29T12:38:42;1.35;;;1.00;;
33108;SDS011;19481;51.118;6.940;2023-07-29T12:43:44;1.00;;;0.63;;
33108;SDS011;19481;51.118;6.940;2023-07-29T12:48:47;1.42;;;0.80;;
33108;SDS011;19481;51.118;6.940;2023-07-29T12:53:49;2.97;;;0.75;;
33108;SDS011;19481;51.118;6.940;2023-07-29T12:58:50;0.88;;;0.80;;
33108;SDS011;19481;51.118;6.940;2023-07-29T13:03:54;1.10;;;0.60;;
33108;SDS011;19481;51.118;6.940;2023-07-29T13:08:56;1.08;;;0.90;;
33108;SDS011;19481;51.118;6.940;2023-07-29T13:13:57;1.50;;;0.88;;
33108;SDS011;19481;51.118;6.940;2023-07-29T13:19:01;0.65;;;0.65;;
33108;SDS011;19481;51.118;6.940;2023-07-29T13:24:03;0.80;;;0.80;;
33108;SDS011;19481;51.118;6.940;2023-07-29T13:29:05;0.75;;;0.70;;
33108;SDS011;19481;51.118;6.940;2023-07-29T13:34:08;6.43;;;0.88;;
33108;SDS011;19481;51.118;6.940;2023-07-29T13:39:09;1.60;;;0.82;;
33108;SDS011;19481;51.118;6.940;2023-07-29T13:44:11;2.05;;;0.90;;
33108;SDS011;19481;51.118;6.940;2023-07-29T13:49:14;1.00;;;0.98;;
33108;SDS011;19481;51.118;6.940;2023-07-29T13:54:17;1.35;;;1.10;;
33108;SDS011;19481;51.118;6.940;2023-07-29T13:59:18;2.40;;;0.98;;
33108;SDS011;19481;51.118;6.940;2023-07-29T14:04:21;2.17;;;0.93;;
33108;SDS011;19481;51.118;6.940;2023-07-29T14:09:23;1.45;;;1.00;;
33108;SDS011;19481;51.118;6.940;2023-07-29T14:14:26;1.30;;;1.20;;
33108;SDS011;19481;51.118;6.940;2023-07-29T14:19:29;1.35;;;1.23;;
33108;SDS011;19481;51.118;6.940;2023-07-29T14:24:30;3.35;;;1.35;;
33108;SDS011;19481;51.118;6.940;2023-07-29T14:29:32;3.63;;;1.35;;
33108;SDS011;19481;51.118;6.940;2023-07-29T14:34:35;1.85;;;1.20;;
33108;SDS011;19481;51.118;6.940;2023-07-29T14:39:36;3.83;;;1.23;;
33108;SDS011;19481;51.118;6.940;2023-07-29T14:44:38;2.72;;;1.40;;
33108;SDS011;19481;51.118;6.940;2023-07-29T14:49:41;1.90;;;1.10;;
33108;SDS011;19481;51.118;6.940;2023-07-29T14:54:43;1.05;;;0.93;;
33108;SDS011;19481;51.118;6.940;2023-07-29T14:59:44;1.17;;;1.08;;
33108;SDS011;19481;51.118;6.940;2023-07-29T15:04:47;1.60;;;1.10;;
33108;SDS011;19481;51.118;6.940;2023-07-29T15:09:49;1.00;;;0.90;;
33108;SDS011;19481;51.118;6.940;2023-07-29T15:14:51;1.33;;;0.90;;
33108;SDS011;19481;51.118;6.940;2023-07-29T15:19:54;0.95;;;0.95;;
33108;SDS011;19481;51.118;6.940;2023-07-29T15:24:55;2.10;;;0.80;;
33108;SDS011;19481;51.118;6.940;2023-07-29T15:29:57;1.35;;;0.70;;
33108;SDS011;19481;51.118;6.940;2023-07-29T15:35:00;0.95;;;0.93;;
33108;SDS011;19481;51.118;6.940;2023-07-29T15:40:01;1.55;;;0.90;;
33108;SDS011;19481;51.118;6.940;2023-07-29T15:45:04;2.50;;;1.10;;
33108;SDS011;19481;51.118;6.940;2023-07-29T15:50:08;1.10;;;0.95;;
33108;SDS011;19481;51.118;6.940;2023-07-29T15:55:10;1.00;;;0.90;;
33108;SDS011;19481;51.118;6.940;2023-07-29T16:00:12;1.48;;;1.00;;
33108;SDS011;19481;51.118;6.940;2023-07-29T16:05:15;0.93;;;0.90;;
33108;SDS011;19481;51.118;6.940;2023-07-29T16:10:17;1.13;;;0.98;;
33108;SDS011;19481;51.118;6.940;2023-07-29T16:15:19;1.70;;;0.90;;
33108;SDS011;19481;51.118;6.940;2023-07-29T16:20:22;1.23;;;0.88;;
33108;SDS011;19481;51.118;6.940;2023-07-29T16:25:23;1.20;;;0.90;;
33108;SDS011;19481;51.118;6.940;2023-07-29T16:30:25;1.55;;;0.88;;
33108;SDS011;19481;51.118;6.940;2023-07-29T16:35:28;2.15;;;1.13;;
33108;SDS011;19481;51.118;6.940;2023-07-29T16:40:30;1.45;;;1.10;;
33108;SDS011;19481;51.118;6.940;2023-07-29T16:45:31;0.98;;;0.70;;
33108;SDS011;19481;51.118;6.940;2023-07-29T16:50:34;2.78;;;0.85;;
33108;SDS011;19481;51.118;6.940;2023-07-29T16:55:37;1.52;;;0.80;;
33108;SDS011;19481;51.118;6.940;2023-07-29T17:00:38;1.30;;;0.93;;
33108;SDS011;19481;51.118;6.940;2023-07-29T17:05:41;0.82;;;0.82;;
33108;SDS011;19481;51.118;6.940;2023-07-29T17:10:43;2.05;;;1.88;;
33108;SDS011;19481;51.118;6.940;2023-07-29T17:15:45;2.35;;;1.10;;
33108;SDS011;19481;51.118;6.940;2023-07-29T17:20:49;1.00;;;0.90;;
33108;SDS011;19481;51.118;6.940;2023-07-29T17:25:50;1.30;;;0.90;;
33108;SDS011;19481;51.118;6.940;2023-07-29T17:30:52;4.05;;;1.17;;
33108;SDS011;19481;51.118;6.940;2023-07-29T17:35:55;1.15;;;1.05;;
33108;SDS011;19481;51.118;6.940;2023-07-29T17:40:56;1.00;;;0.90;;
33108;SDS011;19481;51.118;6.940;2023-07-29T17:46:01;1.33;;;1.00;;
33108;SDS011;19481;51.118;6.940;2023-07-29T17:51:04;3.78;;;1.70;;
33108;SDS011;19481;51.118;6.940;2023-07-29T17:56:05;1.27;;;0.98;;
33108;SDS011;19481;51.118;6.940;2023-07-29T18:01:08;1.70;;;1.10;;
33108;SDS011;19481;51.118;6.940;2023-07-29T18:06:14;1.30;;;1.20;;
33108;SDS011;19481;51.118;6.940;2023-07-29T18:11:16;1.80;;;1.00;;
33108;SDS011;19481;51.118;6.940;2023-07-29T18:16:18;1.50;;;1.30;;
33108;SDS011;19481;51.118;6.940;2023-07-29T18:21:21;1.30;;;1.20;;
33108;SDS011;19481;51.118;6.940;2023-07-29T18:26:23;1.75;;;1.20;;
33108;SDS011;19481;51.118;6.940;2023-07-29T18:31:25;2.20;;;1.20;;
33108;SDS011;19481;51.118;6.940;2023-07-29T18:36:28;3.30;;;1.40;;
33108;SDS011;19481;51.118;6.940;2023-07-29T18:41:30;8.93;;;1.70;;
33108;SDS011;19481;51.118;6.940;2023-07-29T18:46:32;7.25;;;1.17;;
33108;SDS011;19481;51.118;6.940;2023-07-29T18:51:35;3.83;;;1.30;;
33108;SDS011;19481;51.118;6.940;2023-07-29T18:56:37;1.17;;;1.08;;
33108;SDS011;19481;51.118;6.940;2023-07-29T19:01:38;1.73;;;1.35;;
33108;SDS011;19481;51.118;6.940;2023-07-29T19:06:41;2.40;;;1.30;;
33108;SDS011;19481;51.118;6.940;2023-07-29T19:11:43;2.45;;;1.10;;
33108;SDS011;19481;51.118;6.940;2023-07-29T19:16:44;1.55;;;1.38;;
33108;SDS011;19481;51.118;6.940;2023-07-29T19:21:47;1.35;;;1.25;;
33108;SDS011;19481;51.118;6.940;2023-07-29T19:26:49;2.15;;;1.90;;
33108;SDS011;19481;51.118;6.940;2023-07-29T19:31:51;2.10;;;1.20;;
33108;SDS011;19481;51.118;6.940;2023-07-29T19:36:54;1.50;;;1.40;;
33108;SDS011;19481;51.118;6.940;2023-07-29T19:41:56;5.18;;;2.10;;
33108;SDS011;19481;51.118;6.940;2023-07-29T19:46:57;4.60;;;1.48;;
33108;SDS011;19481;51.118;6.940;2023-07-29T19:52:00;2.90;;;1.80;;
33108;SDS011;19481;51.118;6.940;2023-07-29T19:57:02;8.18;;;1.98;;
33108;SDS011;19481;51.118;6.940;2023-07-29T20:02:04;4.13;;;2.15;;
33108;SDS011;19481;51.118;6.940;2023-07-29T20:07:07;5.68;;;4.18;;
33108;SDS011;19481;51.118;6.940;2023-07-29T20:12:09;8.18;;;2.13;;
33108;SDS011;19481;51.118;6.940;2023-07-29T20:17:11;2.40;;;2.17;;
33108;SDS011;19481;51.118;6.940;2023-07-29T20:22:14;3.30;;;2.30;;
33108;SDS011;19481;51.118;6.940;2023-07-29T20:27:16;5.43;;;2.60;;
33108;SDS011;19481;51.118;6.940;2023-07-29T20:32:17;3.17;;;2.47;;
33108;SDS011;19481;51.118;6.940;2023-07-29T20:37:20;2.60;;;2.15;;
33108;SDS011;19481;51.118;6.940;2023-07-29T20:42:22;2.65;;;2.40;;
33108;SDS011;19481;51.118;6.940;2023-07-29T20:47:24;2.65;;;2.40;;
33108;SDS011;19481;51.118;6.940;2023-07-29T20:52:27;3.67;;;2.55;;
33108;SDS011;19481;51.118;6.940;2023-07-29T20:57:28;3.88;;;2.30;;
33108;SDS011;19481;51.118;6.940;2023-07-29T21:02:30;3.38;;;2.65;;
33108;SDS011;19481;51.118;6.940;2023-07-29T21:07:33;3.92;;;2.72;;
33108;SDS011;19481;51.118;6.940;2023-07-29T21:12:34;3.33;;;3.00;;
33108;SDS011;19481;51.118;6.940;2023-07-29T21:17:36;5.00;;;2.92;;
33108;SDS011;19481;51.118;6.940;2023-07-29T21:22:39;4.07;;;3.05;;
33108;SDS011;19481;51.118;6.940;2023-07-29T21:27:41;6.50;;;3.40;;
33108;SDS011;19481;51.118;6.940;2023-07-29T21:32:42;4.03;;;2.83;;
33108;SDS011;19481;51.118;6.940;2023-07-29T21:37:45;7.32;;;3.08;;
33108;SDS011;19481;51.118;6.940;2023-07-29T21:42:47;6.43;;;2.97;;
33108;SDS011;19481;51.118;6.940;2023-07-29T21:47:48;3.90;;;3.03;;
33108;SDS011;19481;51.118;6.940;2023-07-29T21:52:51;6.28;;;3.05;;
33108;SDS011;19481;51.118;6.940;2023-07-29T21:57:53;4.97;;;3.58;;
33108;SDS011;19481;51.118;6.940;2023-07-29T22:02:55;5.10;;;3.00;;
33108;SDS011;19481;51.118;6.940;2023-07-29T22:07:58;4.60;;;2.50;;
33108;SDS011;19481;51.118;6.940;2023-07-29T22:12:59;5.53;;;2.47;;
33108;SDS011;19481;51.118;6.940;2023-07-29T22:18:01;3.90;;;2.60;;
33108;SDS011;19481;51.118;6.940;2023-07-29T22:23:04;2.78;;;2.20;;
33108;SDS011;19481;51.118;6.940;2023-07-29T22:28:06;3.28;;;1.90;;
33108;SDS011;19481;51.118;6.940;2023-07-29T22:33:09;3.25;;;2.60;;
33108;SDS011;19481;51.118;6.940;2023-07-29T22:38:12;2.50;;;1.88;;
33108;SDS011;19481;51.118;6.940;2023-07-29T22:43:13;1.80;;;1.70;;
33108;SDS011;19481;51.118;6.940;2023-07-29T22:48:15;1.70;;;1.60;;
33108;SDS011;19481;51.118;6.940;2023-07-29T22:53:18;2.25;;;1.70;;
33108;SDS011;19481;51.118;6.940;2023-07-29T22:58:20;7.47;;;1.83;;
33108;SDS011;19481;51.118;6.940;2023-07-29T23:03:22;2.03;;;1.67;;
33108;SDS011;19481;51.118;6.940;2023-07-29T23:08:26;10.40;;;1.88;;
33108;SDS011;19481;51.118;6.940;2023-07-29T23:13:27;3.63;;;1.58;;
33108;SDS011;19481;51.118;6.940;2023-07-29T23:18:29;4.40;;;1.52;;
33108;SDS011;19481;51.118;6.940;2023-07-29T23:23:32;1.75;;;1.45;;
33108;SDS011;19481;51.118;6.940;2023-07-29T23:28:34;3.50;;;1.70;;
33108;SDS011;19481;51.118;6.940;2023-07-29T23:33:35;2.00;;;1.42;;
33108;SDS011;19481;51.118;6.940;2023-07-29T23:38:38;1.65;;;1.38;;
33108;SDS011;19481;51.118;6.940;2023-07-29T23:43:40;1.33;;;1.23;;
33108;SDS011;19481;51.118;6.940;2023-07-29T23:48:42;1.52;;;1.27;;
33108;SDS011;19481;51.118;6.940;2023-07-29T23:53:45;6.32;;;1.50;;
33108;SDS011;19481;51.118;6.940;2023-07-29T23:58:46;1.98;;;1.40;;
